createdAt,value
2019-02-25T00:01:00.487Z,8.10
2019-02-25T00:03:30.617Z,8.60
2019-02-25T00:06:00.446Z,8.03
2019-02-25T00:08:49.394Z,7.87
2019-02-25T00:11:18.914Z,8.40
2019-02-25T00:13:48.478Z,8.93
2019-02-25T00:16:18.178Z,9.73
2019-02-25T00:18:47.831Z,7.30
2019-02-25T00:21:17.571Z,8.63
2019-02-25T00:23:47.230Z,8.90
2019-02-25T00:26:16.870Z,8.80
2019-02-25T00:28:46.417Z,10.20
2019-02-25T00:31:16.002Z,7.60
2019-02-25T00:33:45.555Z,8.03
2019-02-25T00:36:15.171Z,8.00
2019-02-25T00:38:44.888Z,7.23
2019-02-25T00:41:14.458Z,7.00
2019-02-25T00:43:44.106Z,7.93
2019-02-25T00:46:13.738Z,7.73
2019-02-25T00:48:43.371Z,8.00
2019-02-25T00:51:13.024Z,10.20
2019-02-25T00:53:42.622Z,6.93
2019-02-25T00:56:12.347Z,6.87
2019-02-25T00:58:42.011Z,7.83
2019-02-25T01:01:11.663Z,7.87
2019-02-25T01:03:41.339Z,7.93
2019-02-25T01:06:11.075Z,7.70
2019-02-25T01:08:40.698Z,7.27
2019-02-25T01:11:10.601Z,7.50
2019-02-25T01:13:40.270Z,7.50
2019-02-25T01:16:10.018Z,6.37
2019-02-25T01:18:39.611Z,6.80
2019-02-25T01:21:09.333Z,6.90
2019-02-25T01:23:39.038Z,6.80
2019-02-25T01:26:08.762Z,6.07
2019-02-25T01:28:38.356Z,6.43
2019-02-25T01:31:08.048Z,6.53
2019-02-25T01:33:37.702Z,6.03
2019-02-25T01:36:07.346Z,6.17
2019-02-25T01:38:37.018Z,6.57
2019-02-25T01:41:06.602Z,6.73
2019-02-25T01:43:55.542Z,6.40
2019-02-25T01:46:25.035Z,7.03
2019-02-25T01:48:54.778Z,6.90
2019-02-25T01:51:24.370Z,6.50
2019-02-25T01:53:53.959Z,6.40
2019-02-25T01:56:23.835Z,6.00
2019-02-25T01:58:53.458Z,6.03
2019-02-25T02:01:23.174Z,6.27
2019-02-25T02:03:52.909Z,6.17
2019-02-25T02:06:22.493Z,6.50
2019-02-25T02:08:52.083Z,6.27
2019-02-25T02:11:21.679Z,6.00
2019-02-25T02:13:51.377Z,6.33
2019-02-25T02:16:20.955Z,6.37
2019-02-25T02:18:50.666Z,5.00
2019-02-25T02:21:20.295Z,6.80
2019-02-25T02:23:49.965Z,6.40
2019-02-25T02:26:21.124Z,6.10
2019-02-25T02:28:50.967Z,6.20
2019-02-25T02:31:20.595Z,6.40
2019-02-25T02:33:50.327Z,5.87
2019-02-25T02:36:19.943Z,5.97
2019-02-25T02:38:49.596Z,5.40
2019-02-25T02:41:19.268Z,5.53
2019-02-25T02:43:48.775Z,5.23
2019-02-25T02:46:35.964Z,5.30
2019-02-25T02:49:05.563Z,6.43
2019-02-25T02:51:35.195Z,5.70
2019-02-25T02:54:04.838Z,6.27
2019-02-25T02:56:53.695Z,5.40
2019-02-25T02:59:23.250Z,6.27
2019-02-25T03:01:55.687Z,6.27
2019-02-25T03:04:25.362Z,4.67
2019-02-25T03:06:55.043Z,5.40
2019-02-25T03:09:24.763Z,6.20
2019-02-25T03:11:54.433Z,5.80
2019-02-25T03:14:24.042Z,4.47
2019-02-25T03:16:53.637Z,4.80
2019-02-25T03:19:23.255Z,5.00
2019-02-25T03:21:52.951Z,4.50
2019-02-25T03:24:22.557Z,4.60
2019-02-25T03:26:52.270Z,4.77
2019-02-25T03:29:21.937Z,4.83
2019-02-25T03:31:51.611Z,5.03
2019-02-25T03:34:21.111Z,5.00
2019-02-25T03:36:50.687Z,4.43
2019-02-25T03:39:20.238Z,5.03
2019-02-25T03:41:49.986Z,5.10
2019-02-25T03:44:19.592Z,4.23
2019-02-25T03:46:49.312Z,5.03
2019-02-25T03:49:18.850Z,4.70
2019-02-25T03:51:48.591Z,4.80
2019-02-25T03:54:18.218Z,4.63
2019-02-25T03:56:47.941Z,5.00
2019-02-25T03:59:17.702Z,5.03
2019-02-25T04:01:47.335Z,4.07
2019-02-25T04:04:17.004Z,5.97
2019-02-25T04:06:46.716Z,5.40
2019-02-25T04:09:16.458Z,6.60
2019-02-25T04:11:46.021Z,4.77
2019-02-25T04:14:15.650Z,5.30
2019-02-25T04:16:45.596Z,5.87
2019-02-25T04:19:15.137Z,5.37
2019-02-25T04:21:44.723Z,4.77
2019-02-25T04:24:14.471Z,6.80
2019-02-25T04:26:44.166Z,4.40
2019-02-25T04:29:13.962Z,4.97
2019-02-25T04:31:43.483Z,4.77
2019-02-25T04:34:13.369Z,5.57
2019-02-25T04:36:42.958Z,4.47
2019-02-25T04:39:12.599Z,4.47
2019-02-25T04:41:42.089Z,4.77
2019-02-25T04:44:11.750Z,5.30
2019-02-25T04:46:41.476Z,5.47
2019-02-25T04:49:11.170Z,4.97
2019-02-25T04:51:40.894Z,4.53
2019-02-25T04:54:10.548Z,4.97
2019-02-25T04:56:40.327Z,5.23
2019-02-25T04:59:09.946Z,5.10
2019-02-25T05:01:39.630Z,6.00
2019-02-25T05:04:09.355Z,5.30
2019-02-25T05:06:38.975Z,5.53
2019-02-25T05:09:08.635Z,4.97
2019-02-25T05:11:38.265Z,4.73
2019-02-25T05:14:07.959Z,4.20
2019-02-25T05:16:39.922Z,4.90
2019-02-25T05:19:08.903Z,4.90
2019-02-25T05:21:38.406Z,5.40
2019-02-25T05:24:07.963Z,4.07
2019-02-25T05:26:37.634Z,5.47
2019-02-25T05:29:07.359Z,4.77
2019-02-25T05:31:37.102Z,5.50
2019-02-25T05:34:06.711Z,4.10
2019-02-25T05:36:36.404Z,4.20
2019-02-25T05:39:06.841Z,5.20
2019-02-25T05:41:36.643Z,5.10
2019-02-25T05:44:08.495Z,4.80
2019-02-25T05:46:37.777Z,5.23
2019-02-25T05:49:07.416Z,5.87
2019-02-25T05:51:37.169Z,5.33
2019-02-25T05:54:07.111Z,5.03
2019-02-25T05:56:36.704Z,4.87
2019-02-25T05:59:06.234Z,4.43
2019-02-25T06:01:35.853Z,5.57
2019-02-25T06:04:05.327Z,4.90
2019-02-25T06:06:34.915Z,3.97
2019-02-25T06:09:05.701Z,4.63
2019-02-25T06:11:35.381Z,4.60
2019-02-25T06:14:05.198Z,4.70
2019-02-25T06:16:34.736Z,4.63
2019-02-25T06:19:04.598Z,4.23
2019-02-25T06:21:34.313Z,4.40
2019-02-25T06:24:03.982Z,4.60
2019-02-25T06:26:34.031Z,4.47
2019-02-25T06:29:03.791Z,6.27
2019-02-25T06:31:33.360Z,5.10
2019-02-25T06:34:03.111Z,4.83
2019-02-25T06:36:32.939Z,5.93
2019-02-25T06:39:02.863Z,5.33
2019-02-25T06:41:32.534Z,5.40
2019-02-25T06:44:02.178Z,4.93
2019-02-25T06:46:31.847Z,6.40
2019-02-25T06:49:01.532Z,6.90
2019-02-25T06:51:31.102Z,6.33
2019-02-25T06:54:00.715Z,11.90
2019-02-25T06:56:30.386Z,9.27
2019-02-25T06:59:00.167Z,6.90
2019-02-25T07:01:29.810Z,8.90
2019-02-25T07:04:03.898Z,6.87
2019-02-25T07:06:35.135Z,7.17
2019-02-25T07:09:07.970Z,6.50
2019-02-25T07:11:45.191Z,10.23
2019-02-25T07:14:28.459Z,10.03
2019-02-25T07:16:59.892Z,10.63
2019-02-25T07:19:36.997Z,10.27
2019-02-25T07:22:23.462Z,7.63
2019-02-25T07:24:54.843Z,6.50
2019-02-25T07:27:26.055Z,4.80
2019-02-25T07:30:00.325Z,4.60
2019-02-25T07:32:47.779Z,4.70
2019-02-25T07:35:25.880Z,5.33
2019-02-25T07:38:00.343Z,4.47
2019-02-25T07:40:31.730Z,5.90
2019-02-25T07:43:31.043Z,6.00
2019-02-25T07:46:02.439Z,5.80
2019-02-25T07:48:33.767Z,5.93
2019-02-25T07:51:21.215Z,6.30
2019-02-25T07:54:06.673Z,7.00
2019-02-25T07:56:52.492Z,8.10
2019-02-25T07:59:23.708Z,7.23
2019-02-25T08:01:55.141Z,6.70
2019-02-25T08:04:31.905Z,7.53
2019-02-25T08:07:21.274Z,8.23
2019-02-25T08:14:53.826Z,6.00
2019-02-25T08:17:27.936Z,5.60
2019-02-25T08:20:02.344Z,4.20
2019-02-25T08:22:36.544Z,4.10
2019-02-25T08:25:20.795Z,4.50
2019-02-25T08:27:51.951Z,3.67
2019-02-25T08:30:41.519Z,4.20
2019-02-25T08:33:15.419Z,3.87
2019-02-25T08:36:04.433Z,4.17
2019-02-25T09:21:14.908Z,7.93
2019-02-25T09:26:13.535Z,7.80
2019-02-25T09:28:43.298Z,7.80
2019-02-25T09:31:12.913Z,7.50
2019-02-25T09:58:30.602Z,9.00
2019-02-25T10:03:29.429Z,7.33
2019-02-25T10:15:55.161Z,7.47
2019-02-25T10:18:25.144Z,6.63
2019-02-25T10:20:54.823Z,7.23
2019-02-25T11:05:51.793Z,5.90
2019-02-25T11:08:22.572Z,5.50
2019-02-25T11:11:02.780Z,6.30
2019-02-25T11:13:34.672Z,5.83
2019-02-25T11:16:04.279Z,6.30
2019-02-25T11:18:33.982Z,6.10
2019-02-25T11:21:08.865Z,7.30
2019-02-25T11:23:38.507Z,5.93
2019-02-25T11:26:09.326Z,5.00
2019-02-25T11:28:52.578Z,5.20
2019-02-25T11:31:24.702Z,5.30
2019-02-25T11:33:53.560Z,6.23
2019-02-25T11:36:23.162Z,5.30
2019-02-25T11:39:13.411Z,5.53
2019-02-25T11:41:43.087Z,6.60
2019-02-25T11:44:12.832Z,6.27
2019-02-25T11:46:42.791Z,5.20
2019-02-25T11:49:12.410Z,5.37
2019-02-25T12:06:35.826Z,5.70
2019-02-25T12:09:05.904Z,5.73
2019-02-25T12:24:18.882Z,5.67
2019-02-25T12:56:35.131Z,5.23
2019-02-25T12:59:05.370Z,4.10
2019-02-25T13:01:35.132Z,4.03
2019-02-25T13:04:04.871Z,4.30
2019-02-25T13:06:34.548Z,3.60
2019-02-25T13:09:07.379Z,3.10
2019-02-25T13:21:32.343Z,3.37
2019-02-25T13:24:04.127Z,2.80
2019-02-25T13:26:34.013Z,4.27
2019-02-25T13:29:23.883Z,3.67
2019-02-25T13:31:53.610Z,4.10
2019-02-25T13:34:23.300Z,5.30
2019-02-25T13:36:53.234Z,4.03
2019-02-25T13:39:23.118Z,4.37
2019-02-25T13:41:52.934Z,5.00
2019-02-25T13:44:22.692Z,4.77
2019-02-25T13:46:52.543Z,4.43
2019-02-25T13:49:22.316Z,3.70
2019-02-25T13:51:52.019Z,4.10
2019-02-25T13:54:22.175Z,4.10
2019-02-25T13:56:52.058Z,3.33
2019-02-25T13:59:21.706Z,3.00
2019-02-25T14:01:51.396Z,2.87
2019-02-25T14:04:21.040Z,2.90
2019-02-25T14:06:50.892Z,3.17
2019-02-25T14:09:20.702Z,3.43
2019-02-25T14:11:50.552Z,3.07
2019-02-25T14:14:20.462Z,3.60
2019-02-25T14:16:50.174Z,3.80
2019-02-25T14:19:19.996Z,4.40
2019-02-25T14:21:49.747Z,4.77
2019-02-25T14:24:20.758Z,4.57
2019-02-25T14:26:50.819Z,4.23
2019-02-25T14:29:20.780Z,3.77
2019-02-25T14:31:51.095Z,3.90
2019-02-25T14:34:20.973Z,4.30
2019-02-25T14:36:52.494Z,4.13
2019-02-25T14:39:27.789Z,3.80
2019-02-25T14:41:54.935Z,3.33
2019-02-25T14:44:29.836Z,4.20
2019-02-25T14:46:58.795Z,4.40
2019-02-25T14:49:29.969Z,3.77
2019-02-25T14:51:59.691Z,4.63
2019-02-25T14:54:32.279Z,4.87
2019-02-25T14:57:01.800Z,5.20
2019-02-25T14:59:31.595Z,4.00
2019-02-25T15:02:02.143Z,4.93
2019-02-25T15:04:33.444Z,5.90
2019-02-25T15:07:05.902Z,5.33
2019-02-25T15:09:37.050Z,7.13
2019-02-25T15:12:09.245Z,3.50
2019-02-25T15:14:38.101Z,4.03
2019-02-25T15:17:08.874Z,3.77
2019-02-25T20:22:21.451Z,10.00
2019-02-25T20:34:52.342Z,10.23
2019-02-25T20:37:22.993Z,9.70
2019-02-25T20:39:53.563Z,10.47
2019-02-25T20:42:24.421Z,9.33
2019-02-25T20:44:55.298Z,9.27
2019-02-25T20:47:25.934Z,10.13
2019-02-25T20:49:56.073Z,10.13
2019-02-25T20:52:26.943Z,12.30
2019-02-25T20:54:56.567Z,9.27
2019-02-25T20:57:26.402Z,10.35
2019-02-25T20:59:57.477Z,10.03
2019-02-25T21:02:27.400Z,10.53
2019-02-25T21:04:58.182Z,9.40
2019-02-25T21:07:29.672Z,8.77
2019-02-25T21:10:00.882Z,9.60
2019-02-25T21:12:30.721Z,9.60
2019-02-25T21:15:00.411Z,10.23
2019-02-25T21:17:30.875Z,9.33
2019-02-25T21:20:02.865Z,9.85
2019-02-25T21:22:34.028Z,10.30
2019-02-25T21:25:07.265Z,8.97
2019-02-25T21:27:39.084Z,8.40
2019-02-25T21:30:17.283Z,8.90
2019-02-25T21:32:47.373Z,9.17
2019-02-25T21:35:19.403Z,9.40
2019-02-25T21:37:50.120Z,7.83
2019-02-25T21:40:26.876Z,8.90
2019-02-25T21:42:56.640Z,9.00
2019-02-25T21:45:29.079Z,8.25
2019-02-25T21:47:59.553Z,8.27
2019-02-25T21:50:32.996Z,10.30
2019-02-25T21:53:04.896Z,10.17
2019-02-25T21:55:34.954Z,9.37
2019-02-25T21:58:05.055Z,8.77
2019-02-25T22:00:37.491Z,8.77
2019-02-25T22:03:08.616Z,11.50
2019-02-25T22:05:37.745Z,9.90
2019-02-25T22:08:07.396Z,9.30
2019-02-25T22:10:39.359Z,9.20
2019-02-25T22:13:09.463Z,8.93
2019-02-25T22:15:40.713Z,9.40
2019-02-25T22:18:32.519Z,10.50
2019-02-25T22:21:05.184Z,9.33
2019-02-25T22:23:34.833Z,12.00
2019-02-25T22:26:04.620Z,9.53
2019-02-25T22:28:35.365Z,10.60
2019-02-25T22:31:08.286Z,8.35
2019-02-25T22:33:37.719Z,10.07
2019-02-25T22:36:26.632Z,10.17
2019-02-25T22:38:57.210Z,11.25
2019-02-25T22:41:27.675Z,9.20
